createdAt,value
2019-01-26T00:00:37.621Z,19.20
2019-01-26T00:01:37.585Z,19.00
2019-01-26T00:02:37.576Z,19.20
2019-01-26T00:03:37.617Z,17.60
2019-01-26T00:04:37.548Z,18.50
2019-01-26T00:05:37.563Z,18.10
2019-01-26T00:06:37.530Z,18.40
2019-01-26T00:07:37.519Z,18.70
2019-01-26T00:08:37.506Z,18.20
2019-01-26T00:09:37.503Z,17.80
2019-01-26T00:10:37.506Z,18.00
2019-01-26T00:11:37.474Z,17.70
2019-01-26T00:12:37.465Z,17.70
2019-01-26T00:13:37.452Z,17.20
2019-01-26T00:14:37.483Z,18.50
2019-01-26T00:15:37.548Z,18.30
2019-01-26T00:16:37.422Z,17.80
2019-01-26T00:17:37.419Z,17.20
2019-01-26T00:18:37.410Z,16.90
2019-01-26T00:19:37.449Z,17.40
2019-01-26T00:20:37.437Z,17.60
2019-01-26T00:21:37.380Z,18.20
2019-01-26T00:22:37.361Z,18.00
2019-01-26T00:23:37.368Z,17.40
2019-01-26T00:24:37.338Z,18.40
2019-01-26T00:25:37.344Z,18.00
2019-01-26T00:26:37.358Z,17.70
2019-01-26T00:27:37.304Z,17.60
2019-01-26T00:28:37.294Z,17.60
2019-01-26T00:29:37.286Z,17.10
2019-01-26T00:30:37.356Z,16.80
2019-01-26T00:31:37.259Z,16.70
2019-01-26T00:32:37.252Z,16.70
2019-01-26T00:33:37.242Z,17.00
2019-01-26T00:34:37.228Z,16.80
2019-01-26T00:35:37.239Z,16.70
2019-01-26T00:36:37.212Z,16.10
2019-01-26T00:37:37.197Z,16.00
2019-01-26T00:38:37.189Z,16.00
2019-01-26T00:39:37.174Z,16.20
2019-01-26T00:40:37.172Z,15.80
2019-01-26T00:41:37.176Z,15.30
2019-01-26T00:42:37.144Z,14.60
2019-01-26T00:43:37.139Z,14.80
2019-01-26T00:44:37.128Z,15.80
2019-01-26T00:45:37.153Z,14.70
2019-01-26T00:46:37.101Z,14.20
2019-01-26T00:47:37.125Z,14.70
2019-01-26T00:48:37.113Z,15.20
2019-01-26T00:49:37.067Z,14.70
2019-01-26T00:50:37.080Z,14.70
2019-01-26T00:51:37.051Z,15.40
2019-01-26T00:52:37.040Z,15.10
2019-01-26T00:53:37.052Z,13.80
2019-01-26T00:54:37.042Z,14.30
2019-01-26T00:55:37.046Z,14.50
2019-01-26T00:56:37.004Z,15.20
2019-01-26T00:57:36.985Z,14.70
2019-01-26T00:58:36.982Z,15.40
2019-01-26T00:59:36.968Z,15.30
2019-01-26T01:00:36.970Z,15.60
2019-01-26T01:01:36.961Z,16.60
2019-01-26T01:02:36.933Z,15.90
2019-01-26T01:03:37.024Z,14.70
2019-01-26T01:04:36.928Z,15.80
2019-01-26T01:05:36.898Z,16.00
2019-01-26T01:06:36.921Z,14.50
2019-01-26T01:07:36.891Z,16.10
2019-01-26T01:08:36.870Z,16.20
2019-01-26T01:09:36.878Z,15.00
2019-01-26T01:10:36.849Z,15.80
2019-01-26T01:11:36.840Z,16.00
2019-01-26T01:12:36.882Z,17.00
2019-01-26T01:13:36.874Z,16.80
2019-01-26T01:14:36.811Z,17.30
2019-01-26T01:15:36.795Z,16.30
2019-01-26T01:16:36.787Z,16.10
2019-01-26T01:17:36.794Z,16.70
2019-01-26T01:18:36.762Z,17.20
2019-01-26T01:19:36.748Z,16.10
2019-01-26T01:20:36.738Z,17.10
2019-01-26T01:21:36.733Z,16.90
2019-01-26T01:22:36.738Z,17.30
2019-01-26T01:23:36.798Z,17.20
2019-01-26T01:24:36.692Z,17.50
2019-01-26T01:25:36.683Z,17.50
2019-01-26T01:27:31.016Z,15.20
2019-01-26T01:28:31.026Z,16.90
2019-01-26T01:29:30.994Z,18.00
2019-01-26T01:30:30.991Z,17.60
2019-01-26T01:31:30.978Z,16.80
2019-01-26T01:32:30.965Z,18.00
2019-01-26T01:33:30.982Z,17.70
2019-01-26T01:34:30.972Z,17.10
2019-01-26T01:35:30.931Z,17.20
2019-01-26T01:36:30.923Z,18.00
2019-01-26T01:37:30.909Z,17.30
2019-01-26T01:38:30.922Z,18.30
2019-01-26T01:39:31.039Z,16.30
2019-01-26T01:40:30.886Z,17.40
2019-01-26T01:41:30.866Z,16.80
2019-01-26T01:42:30.862Z,17.30
2019-01-26T01:43:30.841Z,17.30
2019-01-26T01:44:30.861Z,17.30
2019-01-26T01:45:30.834Z,15.70
2019-01-26T01:46:30.817Z,17.10
2019-01-26T01:47:30.800Z,17.20
2019-01-26T01:48:30.800Z,17.60
2019-01-26T01:49:30.800Z,17.50
2019-01-26T01:50:30.774Z,16.60
2019-01-26T01:51:38.305Z,17.00
2019-01-26T01:52:30.769Z,16.80
2019-01-26T01:53:30.747Z,16.80
2019-01-26T01:54:30.746Z,17.20
2019-01-26T01:55:30.715Z,17.20
2019-01-26T01:56:30.719Z,16.70
2019-01-26T01:57:30.691Z,17.40
2019-01-26T01:58:30.683Z,16.40
2019-01-26T01:59:30.742Z,18.10
2019-01-26T02:00:30.660Z,16.70
2019-01-26T02:01:30.651Z,17.60
2019-01-26T02:02:30.643Z,16.10
2019-01-26T02:03:30.665Z,16.60
2019-01-26T02:04:30.659Z,17.40
2019-01-26T02:05:30.612Z,16.30
2019-01-26T02:06:30.600Z,16.20
2019-01-26T02:07:30.585Z,16.70
2019-01-26T02:08:30.615Z,16.70
2019-01-26T02:09:30.594Z,15.40
2019-01-26T02:10:30.587Z,16.20
2019-01-26T02:11:30.547Z,16.50
2019-01-26T02:12:30.533Z,16.20
2019-01-26T02:13:30.556Z,17.20
2019-01-26T02:14:30.520Z,16.60
2019-01-26T02:15:30.545Z,15.90
2019-01-26T02:16:30.493Z,16.00
2019-01-26T02:17:30.479Z,15.90
2019-01-26T02:18:30.471Z,17.70
2019-01-26T02:19:39.294Z,16.80
2019-01-26T02:20:30.443Z,16.20
2019-01-26T02:21:30.460Z,16.90
2019-01-26T02:22:30.424Z,17.50
2019-01-26T02:23:30.420Z,16.60
2019-01-26T02:24:30.399Z,16.90
2019-01-26T02:25:30.386Z,17.10
2019-01-26T02:26:39.166Z,17.30
2019-01-26T02:27:30.367Z,17.00
2019-01-26T02:28:30.363Z,17.70
2019-01-26T02:29:30.343Z,17.30
2019-01-26T02:30:30.337Z,16.60
2019-01-26T02:31:30.332Z,17.20
2019-01-26T02:32:30.359Z,17.80
2019-01-26T02:33:30.333Z,17.20
2019-01-26T02:34:30.298Z,16.90
2019-01-26T02:35:30.283Z,17.00
2019-01-26T02:36:30.279Z,17.20
2019-01-26T02:37:30.286Z,17.60
2019-01-26T02:38:30.293Z,16.80
2019-01-26T02:39:30.236Z,16.60
2019-01-26T02:40:30.244Z,17.20
2019-01-26T02:41:30.225Z,17.20
2019-01-26T02:42:30.278Z,16.50
2019-01-26T02:43:30.211Z,17.70
2019-01-26T02:44:30.203Z,16.80
2019-01-26T02:45:30.171Z,16.80
2019-01-26T02:46:30.166Z,17.80
2019-01-26T02:47:30.177Z,16.80
2019-01-26T02:48:30.163Z,16.70
2019-01-26T02:49:30.136Z,16.80
2019-01-26T02:50:30.186Z,16.10
2019-01-26T02:51:30.108Z,16.30
2019-01-26T02:52:30.159Z,15.90
2019-01-26T02:53:30.090Z,15.30
2019-01-26T02:54:30.118Z,16.50
2019-01-26T02:55:30.118Z,16.40
2019-01-26T02:56:30.050Z,16.20
2019-01-26T02:57:30.046Z,15.70
2019-01-26T02:58:30.107Z,16.00
2019-01-26T02:59:30.020Z,16.40
2019-01-26T03:00:30.028Z,16.90
2019-01-26T03:01:29.998Z,16.10
2019-01-26T03:02:30.030Z,15.70
2019-01-26T03:03:30.005Z,15.80
2019-01-26T03:04:29.963Z,16.50
2019-01-26T03:05:29.951Z,15.70
2019-01-26T03:06:29.954Z,16.20
2019-01-26T03:07:29.953Z,15.90
2019-01-26T03:08:29.920Z,15.10
2019-01-26T03:09:29.932Z,16.40
2019-01-26T03:10:29.923Z,15.90
2019-01-26T03:11:29.912Z,16.10
2019-01-26T03:12:29.892Z,16.50
2019-01-26T03:13:29.895Z,15.40
2019-01-26T03:14:29.898Z,15.30
2019-01-26T03:15:29.842Z,15.70
2019-01-26T03:16:29.832Z,16.10
2019-01-26T03:17:29.822Z,16.10
2019-01-26T03:18:29.832Z,15.30
2019-01-26T03:19:29.840Z,15.60
2019-01-26T03:20:29.794Z,15.70
2019-01-26T03:21:29.799Z,15.80
2019-01-26T03:22:29.786Z,16.80
2019-01-26T03:23:29.759Z,15.80
2019-01-26T03:24:29.772Z,16.50
2019-01-26T03:25:29.731Z,15.50
2019-01-26T03:26:29.738Z,15.60
2019-01-26T03:27:29.716Z,16.60
2019-01-26T03:28:29.706Z,16.10
2019-01-26T03:29:29.731Z,15.30
2019-01-26T03:30:29.716Z,16.70
2019-01-26T03:31:29.668Z,15.30
2019-01-26T03:32:29.662Z,16.50
2019-01-26T03:33:29.649Z,16.20
2019-01-26T03:34:29.642Z,16.40
2019-01-26T03:35:29.656Z,16.40
2019-01-26T03:36:29.642Z,17.30
2019-01-26T03:37:29.603Z,16.80
2019-01-26T03:38:29.596Z,16.80
2019-01-26T03:39:29.688Z,16.60
2019-01-26T03:40:29.622Z,16.20
2019-01-26T03:41:29.569Z,17.30
2019-01-26T03:42:29.575Z,16.60
2019-01-26T03:43:29.538Z,17.10
2019-01-26T03:44:29.531Z,17.10
2019-01-26T03:45:29.541Z,17.20
2019-01-26T03:46:29.540Z,17.50
2019-01-26T03:47:29.507Z,17.10
2019-01-26T03:48:29.496Z,17.80
2019-01-26T03:49:29.471Z,17.20
2019-01-26T03:50:29.483Z,17.30
2019-01-26T03:51:29.458Z,17.70
2019-01-26T03:52:29.481Z,17.80
2019-01-26T03:53:29.436Z,17.30
2019-01-26T03:54:29.421Z,16.80
2019-01-26T03:55:29.480Z,17.00
2019-01-26T03:56:29.407Z,17.80
2019-01-26T03:57:29.393Z,17.50
2019-01-26T03:58:29.384Z,18.30
2019-01-26T03:59:29.377Z,17.70
2019-01-26T04:00:29.357Z,19.10
2019-01-26T04:01:29.370Z,18.70
2019-01-26T04:02:29.356Z,18.10
2019-01-26T04:03:29.331Z,18.10
2019-01-26T04:04:29.325Z,18.00
2019-01-26T04:05:29.313Z,18.60
2019-01-26T04:06:29.319Z,19.70
2019-01-26T04:07:29.293Z,18.80
2019-01-26T04:08:29.291Z,18.00
2019-01-26T04:09:29.366Z,19.20
2019-01-26T04:10:29.261Z,17.40
2019-01-26T04:11:29.276Z,19.50
2019-01-26T04:12:29.239Z,18.80
2019-01-26T04:13:29.223Z,17.70
2019-01-26T04:15:47.044Z,18.30
2019-01-26T04:16:47.018Z,19.20
2019-01-26T04:17:46.996Z,20.20
2019-01-26T04:18:46.972Z,20.90
2019-01-26T04:19:54.512Z,19.00
2019-01-26T04:20:54.493Z,20.30
2019-01-26T04:21:55.808Z,21.10
2019-01-26T04:22:54.466Z,21.30
2019-01-26T04:23:46.924Z,20.50
2019-01-26T04:24:54.448Z,21.10
2019-01-26T04:25:54.436Z,22.00
2019-01-26T04:26:55.517Z,21.20
2019-01-26T04:27:46.877Z,21.80
2019-01-26T04:28:46.865Z,22.30
2019-01-26T04:29:46.853Z,21.70
2019-01-26T04:30:46.842Z,21.20
2019-01-26T04:31:46.840Z,21.60
2019-01-26T04:32:46.843Z,21.20
2019-01-26T04:33:46.848Z,20.90
2019-01-26T04:34:46.821Z,21.40
2019-01-26T04:35:46.789Z,22.30
2019-01-26T04:36:46.783Z,21.40
2019-01-26T04:37:46.794Z,20.70
2019-01-26T04:38:46.793Z,22.20
2019-01-26T04:39:46.773Z,21.30
2019-01-26T04:40:46.738Z,22.40
2019-01-26T04:41:46.733Z,21.30
2019-01-26T04:42:46.736Z,21.30
2019-01-26T04:43:46.711Z,21.90
2019-01-26T04:44:46.700Z,22.10
2019-01-26T04:45:54.239Z,22.60
2019-01-26T04:46:46.668Z,22.80
2019-01-26T04:47:46.704Z,21.90
2019-01-26T04:48:46.652Z,22.90
2019-01-26T04:49:46.637Z,22.50
2019-01-26T04:50:46.628Z,21.50
2019-01-26T04:51:46.615Z,21.90
2019-01-26T04:52:46.622Z,22.90
2019-01-26T04:53:55.517Z,21.80
2019-01-26T04:54:46.606Z,22.60
2019-01-26T04:55:46.576Z,22.20
2019-01-26T04:56:46.595Z,22.50
2019-01-26T04:57:46.571Z,22.00
2019-01-26T04:58:46.573Z,22.30
2019-01-26T04:59:46.537Z,23.10
2019-01-26T05:00:58.117Z,22.40
2019-01-26T05:01:46.512Z,23.10
2019-01-26T05:02:46.503Z,21.40
2019-01-26T05:03:46.519Z,21.40
2019-01-26T05:04:46.476Z,21.60
2019-01-26T05:05:46.469Z,22.10
2019-01-26T05:06:46.499Z,22.40
2019-01-26T05:07:46.450Z,21.60
2019-01-26T05:08:46.461Z,22.00
2019-01-26T05:09:46.527Z,21.30
2019-01-26T05:10:46.418Z,22.80
2019-01-26T05:11:46.458Z,21.80
2019-01-26T05:12:46.451Z,20.10
2019-01-26T05:13:46.597Z,23.00
2019-01-26T05:14:46.376Z,21.90
2019-01-26T05:15:46.363Z,22.80
2019-01-26T05:16:46.349Z,21.60
2019-01-26T05:17:46.360Z,22.00
2019-01-26T05:18:46.331Z,21.80
2019-01-26T05:19:46.337Z,21.70
2019-01-26T05:20:46.315Z,21.90
2019-01-26T05:21:46.414Z,21.70
2019-01-26T05:22:46.437Z,21.30
2019-01-26T05:23:46.285Z,22.80
2019-01-26T05:24:46.281Z,22.50
2019-01-26T05:25:46.267Z,22.30
2019-01-26T05:26:46.327Z,23.50
2019-01-26T05:27:46.267Z,22.30
2019-01-26T05:28:46.448Z,22.90
2019-01-26T05:29:46.308Z,23.60
2019-01-26T05:30:46.327Z,21.50
2019-01-26T05:31:46.239Z,23.00
2019-01-26T05:32:46.196Z,22.40
2019-01-26T05:33:46.370Z,22.90
2019-01-26T05:34:46.159Z,23.10
2019-01-26T05:35:46.229Z,22.10
2019-01-26T05:36:46.179Z,22.60
2019-01-26T05:39:27.206Z,21.30
2019-01-26T05:41:37.601Z,20.80
2019-01-26T05:42:37.507Z,22.50
2019-01-26T05:43:37.521Z,22.30
2019-01-26T05:44:37.484Z,22.20
2019-01-26T05:45:37.512Z,22.50
2019-01-26T05:46:37.456Z,22.30
2019-01-26T05:47:37.446Z,23.00
2019-01-26T05:48:37.435Z,22.20
2019-01-26T05:49:37.436Z,22.90
2019-01-26T05:52:39.005Z,18.90
2019-01-26T05:53:38.976Z,23.20
2019-01-26T05:54:39.034Z,21.80
2019-01-26T05:55:39.235Z,21.80
2019-01-26T05:56:39.025Z,23.30
2019-01-26T05:57:38.972Z,22.20
2019-01-26T05:58:39.056Z,23.00
2019-01-26T05:59:38.894Z,22.00
2019-01-26T06:00:38.958Z,21.60
2019-01-26T06:01:38.872Z,23.10
2019-01-26T06:02:38.865Z,23.00
2019-01-26T06:03:38.845Z,22.90
2019-01-26T06:04:38.835Z,21.30
2019-01-26T06:05:38.881Z,22.50
2019-01-26T06:06:38.824Z,22.10
2019-01-26T06:07:38.847Z,21.50
2019-01-26T06:08:38.801Z,22.30
2019-01-26T06:09:38.984Z,21.80
2019-01-26T06:10:38.805Z,21.10
2019-01-26T06:11:38.763Z,22.70
2019-01-26T06:12:38.755Z,22.20
2019-01-26T06:13:38.764Z,21.60
2019-01-26T06:14:38.761Z,20.80
2019-01-26T06:15:38.725Z,21.70
2019-01-26T06:16:38.758Z,21.60
2019-01-26T06:17:38.813Z,21.50
2019-01-26T06:18:38.727Z,21.70
2019-01-26T06:19:38.745Z,21.50
2019-01-26T06:20:38.763Z,21.50
2019-01-26T06:21:38.686Z,20.40
2019-01-26T06:22:38.688Z,20.80
2019-01-26T06:23:38.643Z,22.00
2019-01-26T06:24:38.662Z,20.60
2019-01-26T06:25:47.174Z,21.80
2019-01-26T06:26:38.693Z,21.40
2019-01-26T06:27:38.596Z,21.30
2019-01-26T06:28:38.584Z,20.10
2019-01-26T06:29:38.574Z,20.70
2019-01-26T06:30:38.560Z,20.50
2019-01-26T06:31:38.550Z,20.70
2019-01-26T06:32:38.574Z,21.30
2019-01-26T06:33:38.527Z,20.70
2019-01-26T06:34:38.518Z,20.30
2019-01-26T06:35:38.598Z,21.50
2019-01-26T06:36:38.495Z,22.60
2019-01-26T06:37:38.508Z,21.60
2019-01-26T06:38:38.597Z,22.70
2019-01-26T06:39:38.512Z,21.20
2019-01-26T06:40:38.453Z,21.50
2019-01-26T06:41:38.443Z,21.00
2019-01-26T06:42:38.463Z,21.20
2019-01-26T06:43:38.458Z,20.40
2019-01-26T06:44:38.498Z,20.90
2019-01-26T06:45:39.133Z,20.40
2019-01-26T06:46:38.457Z,20.70
2019-01-26T06:47:38.559Z,20.90
2019-01-26T06:48:38.441Z,20.70
2019-01-26T06:49:38.384Z,20.60
2019-01-26T06:50:38.355Z,20.10
2019-01-26T06:51:38.334Z,20.20
2019-01-26T06:52:38.348Z,20.10
2019-01-26T06:53:38.386Z,19.90
2019-01-26T06:54:38.305Z,19.30
2019-01-26T06:55:38.296Z,18.40
2019-01-26T06:56:38.279Z,18.60
2019-01-26T06:57:38.273Z,20.10
2019-01-26T06:58:38.277Z,19.60
2019-01-26T06:59:38.252Z,18.80
2019-01-26T07:00:38.238Z,19.60
2019-01-26T07:01:38.226Z,19.90
2019-01-26T07:02:38.232Z,18.80
2019-01-26T07:03:38.227Z,19.00
2019-01-26T07:04:38.193Z,18.90
2019-01-26T07:05:38.182Z,18.60
2019-01-26T07:06:38.183Z,19.00
2019-01-26T07:07:38.427Z,19.00
2019-01-26T07:08:38.173Z,19.00
2019-01-26T07:09:38.136Z,18.60
2019-01-26T07:10:38.127Z,19.20
2019-01-26T07:11:38.147Z,19.40
2019-01-26T07:12:38.112Z,19.70
2019-01-26T07:13:38.115Z,19.10
2019-01-26T07:14:38.098Z,18.30
2019-01-26T07:15:38.071Z,19.40
2019-01-26T07:16:38.063Z,18.00
2019-01-26T07:17:38.052Z,19.50
2019-01-26T07:20:03.811Z,16.40
2019-01-26T07:21:03.788Z,17.80
2019-01-26T07:22:03.772Z,19.00
2019-01-26T07:23:03.765Z,18.10
2019-01-26T07:24:03.774Z,19.00
2019-01-26T07:25:03.777Z,19.60
2019-01-26T07:26:03.728Z,18.70
2019-01-26T07:27:54.006Z,15.90
2019-01-26T07:28:54.011Z,17.20
2019-01-26T07:29:53.985Z,17.90
2019-01-26T07:30:53.973Z,17.20
2019-01-26T07:31:53.963Z,18.30
2019-01-26T07:32:53.954Z,17.60
2019-01-26T07:33:54.043Z,17.60
2019-01-26T07:34:53.960Z,18.50
2019-01-26T07:35:54.001Z,17.20
2019-01-26T07:36:53.910Z,17.90
2019-01-26T07:37:53.908Z,18.30
2019-01-26T07:38:53.931Z,17.90
2019-01-26T07:39:53.915Z,18.50
2019-01-26T07:40:53.983Z,16.50
2019-01-26T07:41:53.857Z,17.20
2019-01-26T07:42:53.843Z,17.80
2019-01-26T07:43:53.837Z,17.50
2019-01-26T07:44:53.860Z,17.30
2019-01-26T07:45:53.816Z,17.10
2019-01-26T07:46:53.803Z,16.20
2019-01-26T07:47:53.811Z,16.40
2019-01-26T07:48:53.782Z,15.40
2019-01-26T07:49:53.803Z,15.90
2019-01-26T07:50:53.780Z,16.30
2019-01-26T07:51:53.752Z,17.80
2019-01-26T07:52:53.739Z,15.90
2019-01-26T07:53:53.737Z,17.10
2019-01-26T07:54:53.723Z,14.60
2019-01-26T07:55:53.737Z,14.90
2019-01-26T07:56:53.700Z,14.40
2019-01-26T07:57:53.685Z,15.30
2019-01-26T07:58:53.676Z,14.30
2019-01-26T07:59:53.687Z,14.20
2019-01-26T08:00:53.686Z,14.10
2019-01-26T08:01:53.648Z,14.60
2019-01-26T08:02:53.639Z,14.80
2019-01-26T08:03:53.629Z,14.60
2019-01-26T08:04:53.611Z,14.50
2019-01-26T08:05:53.625Z,14.20
2019-01-26T08:06:53.590Z,14.20
2019-01-26T08:07:53.577Z,13.80
2019-01-26T08:08:53.578Z,13.40
2019-01-26T08:09:53.556Z,13.70
2019-01-26T08:10:53.548Z,13.40
2019-01-26T08:11:53.580Z,13.30
2019-01-26T08:12:53.524Z,13.50
2019-01-26T08:13:53.515Z,14.10
2019-01-26T08:14:53.514Z,14.90
2019-01-26T08:15:53.495Z,13.70
2019-01-26T08:16:53.489Z,13.90
2019-01-26T08:17:53.497Z,12.60
2019-01-26T08:18:53.465Z,12.60
2019-01-26T08:19:53.473Z,12.30
2019-01-26T08:20:53.442Z,12.90
2019-01-26T08:21:53.468Z,12.30
2019-01-26T08:22:53.482Z,12.70
2019-01-26T08:23:53.534Z,12.30
2019-01-26T08:24:53.432Z,11.50
2019-01-26T08:25:53.455Z,11.90
2019-01-26T08:26:53.421Z,11.80
2019-01-26T08:27:53.404Z,11.30
2019-01-26T08:28:53.456Z,11.60
2019-01-26T08:29:53.399Z,11.60
2019-01-26T08:30:53.440Z,11.20
2019-01-26T08:31:53.364Z,12.00
2019-01-26T08:32:53.323Z,11.70
2019-01-26T08:33:53.303Z,10.00
2019-01-26T08:34:53.292Z,11.00
2019-01-26T08:35:53.282Z,10.70
2019-01-26T08:36:53.297Z,10.50
2019-01-26T08:37:53.261Z,10.80
2019-01-26T08:38:53.254Z,10.20
2019-01-26T08:39:53.239Z,10.90
2019-01-26T08:40:53.227Z,11.30
2019-01-26T08:41:53.219Z,11.30
2019-01-26T08:42:53.231Z,10.80
2019-01-26T08:43:53.197Z,10.20
2019-01-26T08:44:53.204Z,10.30
2019-01-26T08:45:53.173Z,10.70
2019-01-26T08:46:53.165Z,9.50
2019-01-26T08:47:53.175Z,9.50
2019-01-26T08:48:53.151Z,9.10
2019-01-26T08:49:53.132Z,9.60
2019-01-26T08:50:53.123Z,10.70
2019-01-26T08:51:53.110Z,9.70
2019-01-26T08:52:53.114Z,10.10
2019-01-26T08:53:53.117Z,9.70
2019-01-26T08:54:53.214Z,10.10
2019-01-26T08:55:53.122Z,9.30
2019-01-26T08:56:53.059Z,9.90
2019-01-26T08:57:53.045Z,9.80
2019-01-26T08:58:53.043Z,9.60
2019-01-26T08:59:53.052Z,9.50
2019-01-26T09:00:53.014Z,9.70
2019-01-26T09:01:53.012Z,10.20
2019-01-26T09:02:52.994Z,10.00
2019-01-26T09:03:53.039Z,9.20
2019-01-26T09:04:52.972Z,9.70
2019-01-26T09:05:52.980Z,9.50
2019-01-26T09:06:52.955Z,9.40
2019-01-26T09:07:52.940Z,9.80
2019-01-26T09:08:52.933Z,9.30
2019-01-26T09:09:52.926Z,9.10
2019-01-26T09:10:52.932Z,9.40
2019-01-26T09:11:52.897Z,9.80
2019-01-26T09:12:52.904Z,9.50
2019-01-26T09:13:52.915Z,9.10
2019-01-26T09:14:52.869Z,9.30
2019-01-26T09:15:52.856Z,9.80
2019-01-26T09:16:52.864Z,10.10
2019-01-26T09:17:52.832Z,9.60
2019-01-26T09:18:52.822Z,9.20
2019-01-26T09:19:52.814Z,9.90
2019-01-26T09:20:52.800Z,9.00
2019-01-26T09:21:52.829Z,9.20
2019-01-26T09:22:52.813Z,8.00
2019-01-26T09:23:52.769Z,9.20
2019-01-26T09:24:52.757Z,8.60
2019-01-26T09:25:52.831Z,8.10
2019-01-26T09:26:52.742Z,8.40
2019-01-26T09:27:52.744Z,8.20
2019-01-26T09:28:52.716Z,8.00
2019-01-26T09:29:52.706Z,8.30
2019-01-26T09:30:52.699Z,8.20
2019-01-26T09:31:52.737Z,8.70
2019-01-26T09:32:52.693Z,8.90
2019-01-26T09:33:52.664Z,8.80
2019-01-26T09:34:52.652Z,9.90
2019-01-26T09:35:52.643Z,9.20
2019-01-26T09:36:52.632Z,7.70
2019-01-26T09:37:52.660Z,8.00
2019-01-26T09:38:52.622Z,8.00
2019-01-26T09:39:52.602Z,7.60
2019-01-26T09:40:52.587Z,7.90
2019-01-26T09:41:52.580Z,8.60
2019-01-26T09:42:52.566Z,8.50
2019-01-26T09:43:52.574Z,8.40
2019-01-26T09:44:52.562Z,7.40
2019-01-26T09:45:52.537Z,7.70
2019-01-26T09:46:52.523Z,8.00
2019-01-26T09:47:52.513Z,8.10
2019-01-26T09:48:52.520Z,8.40
2019-01-26T09:49:52.490Z,8.70
2019-01-26T09:50:52.492Z,8.10
2019-01-26T09:51:52.480Z,8.50
2019-01-26T09:52:52.461Z,7.90
2019-01-26T09:53:52.493Z,7.60
2019-01-26T09:54:52.439Z,7.90
2019-01-26T09:55:52.427Z,7.10
2019-01-26T09:56:52.428Z,7.00
2019-01-26T09:57:52.403Z,7.00
2019-01-26T09:58:52.395Z,8.20
2019-01-26T09:59:52.411Z,8.20
2019-01-26T10:00:52.374Z,7.70
2019-01-26T10:01:52.363Z,7.50
2019-01-26T10:02:52.359Z,7.10
2019-01-26T10:03:52.341Z,7.10
2019-01-26T10:04:52.341Z,7.20
2019-01-26T10:05:52.341Z,7.50
2019-01-26T10:06:52.307Z,7.50
2019-01-26T10:07:52.300Z,7.20
2019-01-26T10:08:52.294Z,7.10
2019-01-26T10:09:52.281Z,7.00
2019-01-26T10:10:52.285Z,7.00
2019-01-26T10:11:52.260Z,7.90
2019-01-26T10:12:52.243Z,7.40
2019-01-26T10:13:52.236Z,7.00
2019-01-26T10:14:52.248Z,7.10
2019-01-26T10:15:52.239Z,7.50
2019-01-26T10:16:52.203Z,7.10
2019-01-26T10:17:52.191Z,7.40
2019-01-26T10:18:53.795Z,8.00
2019-01-26T10:19:52.167Z,8.20
2019-01-26T10:20:52.161Z,7.00
2019-01-26T10:21:52.167Z,7.30
2019-01-26T10:22:52.146Z,7.20
2019-01-26T10:23:52.125Z,7.70
2019-01-26T10:24:52.115Z,8.10
2019-01-26T10:25:52.105Z,8.50
2019-01-26T10:26:52.114Z,8.60
2019-01-26T10:27:52.085Z,7.80
2019-01-26T10:28:52.080Z,8.70
2019-01-26T10:29:52.061Z,8.00
2019-01-26T10:30:52.051Z,7.70
2019-01-26T10:31:52.060Z,7.60
2019-01-26T10:32:52.040Z,7.10
2019-01-26T10:33:52.025Z,8.00
2019-01-26T10:34:52.009Z,7.80
2019-01-26T10:35:52.001Z,8.40
2019-01-26T10:36:52.002Z,8.90
2019-01-26T10:37:51.986Z,9.90
2019-01-26T10:38:51.965Z,8.40
2019-01-26T10:39:51.975Z,8.60
2019-01-26T10:40:51.944Z,8.30
2019-01-26T10:41:51.953Z,8.20
2019-01-26T10:42:51.920Z,8.40
2019-01-26T10:43:51.917Z,7.90
2019-01-26T10:44:51.900Z,7.80
2019-01-26T10:45:51.895Z,7.90
2019-01-26T10:46:51.877Z,8.10
2019-01-26T10:47:51.884Z,8.50
2019-01-26T10:48:51.860Z,8.50
2019-01-26T10:49:51.846Z,7.60
2019-01-26T10:50:51.835Z,8.40
2019-01-26T10:51:51.823Z,8.40
2019-01-26T10:52:51.865Z,7.90
2019-01-26T10:53:51.800Z,9.00
2019-01-26T10:54:51.793Z,9.30
2019-01-26T10:55:51.797Z,9.40
2019-01-26T10:56:51.770Z,9.50
2019-01-26T10:57:51.758Z,9.70
2019-01-26T10:58:51.767Z,10.00
2019-01-26T10:59:51.734Z,9.20
2019-01-26T11:00:51.753Z,10.30
2019-01-26T11:01:51.715Z,9.80
2019-01-26T11:02:51.708Z,10.00
2019-01-26T11:03:51.724Z,9.10
2019-01-26T11:04:51.682Z,9.40
2019-01-26T11:05:51.681Z,9.20
2019-01-26T11:06:51.661Z,10.00
2019-01-26T11:07:51.660Z,9.70
2019-01-26T11:08:51.691Z,10.30
2019-01-26T11:09:51.652Z,10.00
2019-01-26T11:10:51.622Z,9.80
2019-01-26T11:11:51.614Z,9.60
2019-01-26T11:12:51.605Z,9.50
2019-01-26T11:13:51.587Z,9.50
2019-01-26T11:14:51.595Z,10.00
2019-01-26T11:15:51.582Z,9.50
2019-01-26T11:16:51.554Z,9.80
2019-01-26T11:17:51.544Z,10.60
2019-01-26T11:18:51.600Z,9.20
2019-01-26T11:19:51.539Z,9.40
2019-01-26T11:20:51.529Z,9.90
2019-01-26T11:21:51.516Z,9.80
2019-01-26T11:22:51.508Z,9.80
2019-01-26T11:23:51.488Z,10.00
2019-01-26T11:24:51.489Z,10.60
2019-01-26T11:25:51.474Z,9.60
2019-01-26T11:26:51.480Z,9.30
2019-01-26T11:27:51.436Z,9.40
2019-01-26T11:28:51.465Z,9.50
2019-01-26T11:29:51.433Z,8.60
2019-01-26T11:30:51.460Z,10.10
2019-01-26T11:31:51.829Z,9.00
2019-01-26T11:32:51.388Z,10.40
2019-01-26T11:33:51.429Z,9.30
2019-01-26T11:34:51.379Z,9.70
2019-01-26T11:35:51.356Z,8.70
2019-01-26T11:36:51.349Z,9.60
2019-01-26T11:37:51.326Z,9.40
2019-01-26T11:38:51.322Z,9.60
2019-01-26T11:39:51.370Z,10.00
2019-01-26T11:40:51.366Z,9.40
2019-01-26T11:41:51.286Z,8.90
2019-01-26T11:42:51.285Z,9.40
2019-01-26T11:43:51.263Z,10.70
2019-01-26T11:44:51.271Z,9.50
2019-01-26T11:45:51.380Z,9.60
2019-01-26T11:46:51.235Z,8.60
2019-01-26T11:47:51.226Z,9.10
2019-01-26T11:48:51.233Z,8.10
2019-01-26T11:49:51.197Z,9.10
2019-01-26T11:50:51.187Z,9.60
2019-01-26T11:51:51.211Z,8.80
2019-01-26T11:52:51.168Z,9.30
2019-01-26T11:53:51.189Z,9.00
2019-01-26T11:54:51.176Z,9.20
2019-01-26T11:55:51.150Z,9.60
2019-01-26T11:56:51.125Z,9.30
2019-01-26T11:57:51.145Z,9.40
2019-01-26T11:58:51.113Z,9.10
2019-01-26T11:59:51.188Z,9.10
2019-01-26T12:00:51.113Z,9.50
2019-01-26T12:01:51.073Z,9.60
2019-01-26T12:02:51.058Z,10.00
2019-01-26T12:03:51.054Z,9.10
2019-01-26T12:04:51.068Z,9.50
2019-01-26T12:05:51.029Z,10.00
2019-01-26T12:06:51.030Z,10.10
2019-01-26T12:07:51.011Z,9.50
2019-01-26T12:08:50.999Z,10.30
2019-01-26T12:09:50.993Z,9.30
2019-01-26T12:10:50.991Z,9.40
2019-01-26T12:11:50.965Z,10.10
2019-01-26T12:12:50.968Z,9.10
2019-01-26T12:13:50.955Z,9.30
2019-01-26T12:14:50.930Z,9.80
2019-01-26T12:15:50.941Z,9.20
2019-01-26T12:16:50.910Z,9.60
2019-01-26T12:17:50.902Z,9.80
2019-01-26T12:18:50.897Z,9.40
2019-01-26T12:19:50.900Z,9.30
2019-01-26T12:20:50.884Z,10.50
2019-01-26T12:21:50.859Z,9.50
2019-01-26T12:22:50.846Z,9.90
2019-01-26T12:23:50.846Z,9.90
2019-01-26T12:24:50.832Z,8.90
2019-01-26T12:25:50.881Z,9.50
2019-01-26T12:26:50.804Z,10.10
2019-01-26T12:27:50.792Z,9.10
2019-01-26T12:28:50.789Z,9.50
2019-01-26T12:29:50.782Z,9.60
2019-01-26T12:30:50.778Z,10.20
2019-01-26T12:31:51.600Z,10.10
2019-01-26T12:32:50.848Z,8.70
2019-01-26T12:33:50.814Z,9.10
2019-01-26T12:34:50.718Z,9.30
2019-01-26T12:35:51.282Z,9.30
2019-01-26T12:36:50.738Z,9.30
2019-01-26T12:37:50.690Z,9.50
2019-01-26T12:38:50.677Z,9.50
2019-01-26T12:39:50.675Z,9.40
2019-01-26T12:40:50.680Z,9.50
2019-01-26T12:41:50.650Z,9.80
2019-01-26T12:42:50.702Z,10.30
2019-01-26T12:43:50.699Z,10.60
2019-01-26T12:44:50.716Z,11.10
2019-01-26T12:45:50.639Z,10.50
2019-01-26T12:46:50.593Z,11.10
2019-01-26T12:47:50.583Z,10.70
2019-01-26T12:48:50.572Z,10.80
2019-01-26T12:49:50.585Z,11.10
2019-01-26T12:50:50.585Z,12.00
2019-01-26T12:51:50.585Z,10.90
2019-01-26T12:52:50.545Z,11.20
2019-01-26T12:53:50.516Z,10.80
2019-01-26T12:54:50.508Z,10.80
2019-01-26T12:55:50.529Z,11.70
2019-01-26T12:56:50.506Z,11.30
2019-01-26T12:57:50.478Z,11.10
2019-01-26T12:58:50.463Z,10.70
2019-01-26T12:59:50.461Z,8.80
2019-01-26T13:00:50.445Z,8.50
2019-01-26T13:01:50.464Z,8.20
2019-01-26T13:02:50.417Z,8.30
2019-01-26T13:03:50.407Z,6.20
2019-01-26T13:04:50.402Z,6.40
2019-01-26T13:05:50.395Z,6.70
2019-01-26T13:06:50.395Z,6.10
2019-01-26T13:07:50.365Z,6.10
2019-01-26T13:08:50.360Z,6.10